createdAt,value
2022-12-24T00:01:38.213Z,98438.81
2022-12-24T00:04:07.458Z,98441.75
2022-12-24T00:06:36.443Z,98447.72
2022-12-24T00:09:05.411Z,98475.13
2022-12-24T00:11:34.038Z,98471.25
2022-12-24T00:14:03.699Z,98485.34
2022-12-24T00:16:32.221Z,98474.97
2022-12-24T00:19:00.859Z,98485.16
2022-12-24T00:21:29.639Z,98490.06
2022-12-24T00:23:58.360Z,98472.44
2022-12-24T00:26:27.049Z,98435.97
2022-12-24T00:28:56.341Z,98418.53
2022-12-24T00:31:24.918Z,98476.22
2022-12-24T00:33:53.887Z,98479.53
2022-12-24T00:36:22.775Z,98453.75
2022-12-24T00:38:51.395Z,98463.50
2022-12-24T00:41:26.604Z,98474.19
2022-12-24T00:44:10.291Z,98481.94
2022-12-24T00:46:41.722Z,98430.84
2022-12-24T00:49:12.002Z,98461.66
2022-12-24T00:51:41.544Z,98458.53
2022-12-24T00:54:11.297Z,98460.69
2022-12-24T00:56:41.547Z,98433.22
2022-12-24T00:59:12.994Z,98449.63
2022-12-24T01:01:42.048Z,98426.28
2022-12-24T01:04:31.018Z,98439.69
2022-12-24T01:06:59.654Z,98407.31
2022-12-24T01:09:30.070Z,98408.44
2022-12-24T01:11:58.969Z,98445.66
2022-12-24T01:14:27.823Z,98450.84
2022-12-24T01:16:56.339Z,98439.16
2022-12-24T01:19:25.251Z,98419.13
2022-12-24T01:21:54.245Z,98444.47
2022-12-24T01:24:22.970Z,98445.25
2022-12-24T01:26:51.737Z,98462.19
2022-12-24T01:29:20.798Z,98424.28
2022-12-24T01:31:49.554Z,98445.25
2022-12-24T01:34:18.462Z,98441.16
2022-12-24T01:36:47.664Z,98464.94
2022-12-24T01:39:16.851Z,98418.00
2022-12-24T01:42:03.959Z,98454.06
2022-12-24T01:44:36.891Z,98406.78
2022-12-24T01:47:24.936Z,98456.38
2022-12-24T01:50:02.262Z,98457.13
2022-12-24T01:52:36.850Z,98426.72
2022-12-24T01:55:14.176Z,98460.75
2022-12-24T01:58:03.979Z,98451.75
2022-12-24T02:00:32.433Z,98444.78
2022-12-24T02:03:01.008Z,98439.50
2022-12-24T02:05:54.327Z,98430.22
2022-12-24T02:08:23.235Z,98442.13
2022-12-24T02:10:51.689Z,98439.69
2022-12-24T02:13:22.096Z,98430.91
2022-12-24T02:16:21.776Z,98433.63
2022-12-24T02:19:25.500Z,98424.84
2022-12-24T02:22:11.682Z,98379.53
2022-12-24T02:25:44.661Z,98425.44
2022-12-24T02:28:37.422Z,98429.69
2022-12-24T02:31:26.091Z,98416.38
2022-12-24T02:34:18.710Z,98393.19
2022-12-24T02:37:18.949Z,98418.75
2022-12-24T02:39:52.920Z,98385.25
2022-12-24T02:42:32.387Z,98372.53
2022-12-24T02:45:11.194Z,98426.41
2022-12-24T02:47:41.809Z,98434.91
2022-12-24T02:50:14.357Z,98433.03
2022-12-24T02:52:47.990Z,98409.38
2022-12-24T02:55:56.567Z,98442.69
2022-12-24T02:58:58.704Z,98440.47
2022-12-24T03:01:48.741Z,98434.09
2022-12-24T03:04:42.559Z,98431.44
2022-12-24T03:07:23.752Z,98422.50
2022-12-24T03:09:57.161Z,98441.66
2022-12-24T03:12:37.827Z,98437.16
2022-12-24T03:15:12.504Z,98444.31
2022-12-24T03:17:44.235Z,98433.19
2022-12-24T03:20:15.189Z,98432.59
2022-12-24T03:22:43.158Z,98433.94
2022-12-24T03:25:11.399Z,98440.00
2022-12-24T03:27:40.966Z,98448.22
2022-12-24T03:30:13.508Z,98436.38
2022-12-24T03:32:42.234Z,98438.66
2022-12-24T03:35:12.023Z,98449.06
2022-12-24T03:37:40.332Z,98452.44
2022-12-24T03:40:10.233Z,98421.41
2022-12-24T03:42:38.187Z,98445.84
2022-12-24T03:45:07.206Z,98406.66
2022-12-24T03:47:35.589Z,98408.63
2022-12-24T03:50:03.549Z,98383.44
2022-12-24T03:52:31.366Z,98404.16
2022-12-24T03:54:59.895Z,98440.25
2022-12-24T03:57:28.073Z,98438.63
2022-12-24T03:59:56.179Z,98450.16
2022-12-24T04:02:25.237Z,98440.59
2022-12-24T04:04:54.004Z,98444.25
2022-12-24T04:07:22.237Z,98412.38
2022-12-24T04:09:50.575Z,98409.47
2022-12-24T04:12:18.733Z,98430.56
2022-12-24T04:14:46.963Z,98435.69
2022-12-24T04:17:15.437Z,98437.50
2022-12-24T04:19:43.772Z,98433.84
2022-12-24T04:22:11.927Z,98440.50
2022-12-24T04:24:40.171Z,98435.25
2022-12-24T04:27:10.827Z,98442.44
2022-12-24T04:29:38.986Z,98432.38
2022-12-24T04:32:07.293Z,98394.72
2022-12-24T04:34:35.309Z,98443.44
2022-12-24T04:37:03.600Z,98433.59
2022-12-24T04:39:32.057Z,98438.72
2022-12-24T04:42:00.345Z,98378.84
2022-12-24T04:44:28.394Z,98393.72
2022-12-24T04:46:56.719Z,98443.25
2022-12-24T04:49:25.108Z,98438.22
2022-12-24T04:51:53.333Z,98450.69
2022-12-24T04:54:22.163Z,98420.72
2022-12-24T04:56:50.260Z,98454.06
2022-12-24T04:59:18.591Z,98456.44
2022-12-24T05:01:47.056Z,98397.44
2022-12-24T05:04:15.571Z,98445.34
2022-12-24T05:06:43.452Z,98445.34
2022-12-24T05:09:11.925Z,98457.31
2022-12-24T05:11:39.977Z,98452.16
2022-12-24T05:14:15.877Z,98451.59
2022-12-24T05:16:44.627Z,98452.31
2022-12-24T05:19:14.213Z,98445.25
2022-12-24T05:21:42.535Z,98455.47
2022-12-24T05:24:32.621Z,98454.13
2022-12-24T05:27:00.638Z,98422.38
2022-12-24T05:29:29.065Z,98449.97
2022-12-24T05:31:57.537Z,98459.94
2022-12-24T05:34:25.722Z,98448.72
2022-12-24T05:36:54.224Z,98375.47
2022-12-24T05:39:22.384Z,98456.13
2022-12-24T05:41:50.415Z,98452.97
2022-12-24T05:44:19.024Z,98445.72
2022-12-24T05:46:47.434Z,98444.13
2022-12-24T05:49:15.867Z,98454.78
2022-12-24T05:51:44.206Z,98447.97
2022-12-24T05:54:12.317Z,98451.91
2022-12-24T05:56:40.701Z,98454.25
2022-12-24T05:59:09.791Z,98449.84
2022-12-24T06:01:38.539Z,98439.25
2022-12-24T06:04:07.204Z,98442.78
2022-12-24T06:06:35.685Z,98409.56
2022-12-24T06:09:04.334Z,98455.94
2022-12-24T06:11:32.386Z,98430.16
2022-12-24T06:14:03.231Z,98457.97
2022-12-24T06:16:31.500Z,98403.47
2022-12-24T06:18:59.705Z,98447.91
2022-12-24T06:21:28.202Z,98455.25
2022-12-24T06:23:56.513Z,98448.56
2022-12-24T06:26:24.955Z,98460.09
2022-12-24T06:28:53.356Z,98463.31
2022-12-24T06:31:23.833Z,98467.88
2022-12-24T06:33:53.580Z,98442.47
2022-12-24T06:36:24.898Z,98456.25
2022-12-24T06:38:55.033Z,98462.91
2022-12-24T06:41:24.113Z,98419.19
2022-12-24T06:43:54.064Z,98407.84
2022-12-24T06:46:23.046Z,98465.69
2022-12-24T06:48:51.559Z,98470.63
2022-12-24T06:51:21.813Z,98465.69
2022-12-24T06:53:53.814Z,98461.88
2022-12-24T06:56:22.408Z,98473.13
2022-12-24T06:58:51.609Z,98479.19
2022-12-24T07:01:21.070Z,98473.06
2022-12-24T07:03:49.516Z,98485.06
2022-12-24T07:06:30.863Z,98485.34
2022-12-24T07:08:59.376Z,98492.25
2022-12-24T07:11:28.169Z,98489.44
2022-12-24T07:13:56.609Z,98483.47
2022-12-24T07:16:24.932Z,98507.66
2022-12-24T07:18:53.367Z,98445.81
2022-12-24T07:21:22.160Z,98499.25
2022-12-24T07:23:50.420Z,98408.16
2022-12-24T07:26:18.918Z,98502.31
2022-12-24T07:28:47.152Z,98481.91
2022-12-24T07:31:15.608Z,98505.97
2022-12-24T07:33:43.930Z,98508.78
2022-12-24T07:36:21.722Z,98498.91
2022-12-24T07:38:51.269Z,98510.19
2022-12-24T07:41:21.219Z,98508.00
2022-12-24T07:43:50.333Z,98496.72
2022-12-24T07:46:19.317Z,98520.59
2022-12-24T07:48:48.363Z,98514.03
2022-12-24T07:51:17.393Z,98516.09
2022-12-24T07:53:48.166Z,98526.00
2022-12-24T07:56:17.204Z,98490.66
2022-12-24T07:58:45.999Z,98473.69
2022-12-24T08:01:14.477Z,98471.16
2022-12-24T08:03:43.155Z,98532.38
2022-12-24T08:06:12.385Z,98487.69
2022-12-24T08:08:40.751Z,98498.97
2022-12-24T08:11:09.119Z,98527.31
2022-12-24T08:13:37.483Z,98516.22
2022-12-24T08:16:06.998Z,98522.16
2022-12-24T08:18:35.507Z,98505.09
2022-12-24T08:21:07.252Z,98539.03
2022-12-24T08:23:39.024Z,98535.00
2022-12-24T08:26:08.903Z,98524.63
2022-12-24T08:28:38.030Z,98542.97
2022-12-24T08:31:07.140Z,98464.06
2022-12-24T08:33:36.137Z,98539.56
2022-12-24T08:36:06.096Z,98541.56
2022-12-24T08:38:34.815Z,98534.28
2022-12-24T08:41:03.303Z,98521.97
2022-12-24T08:43:31.983Z,98536.84
2022-12-24T08:46:06.469Z,98481.03
2022-12-24T08:48:35.480Z,98526.72
2022-12-24T08:51:10.311Z,98472.97
2022-12-24T08:53:40.324Z,98529.25
2022-12-24T08:56:10.557Z,98518.47
2022-12-24T08:58:39.683Z,98531.78
2022-12-24T09:01:17.976Z,98543.75
2022-12-24T09:03:47.334Z,98493.03
2022-12-24T09:06:16.911Z,98502.03
2022-12-24T09:08:45.926Z,98532.72
2022-12-24T09:11:18.128Z,98542.34
2022-12-24T09:13:46.902Z,98542.75
2022-12-24T09:16:15.623Z,98542.63
2022-12-24T09:18:44.438Z,98543.44
2022-12-24T09:21:16.447Z,98548.59
2022-12-24T09:23:47.563Z,98545.66
2022-12-24T09:26:21.389Z,98541.09
2022-12-24T09:28:52.017Z,98524.53
2022-12-24T09:31:22.172Z,98497.34
2022-12-24T09:33:51.793Z,98492.59
2022-12-24T09:36:22.403Z,98545.78
2022-12-24T09:38:51.900Z,98496.47
2022-12-24T09:42:19.977Z,98536.06
2022-12-24T09:45:03.342Z,98539.13
2022-12-24T09:47:50.165Z,98539.97
2022-12-24T09:50:37.715Z,98545.53
2022-12-24T09:53:21.831Z,98545.94
2022-12-24T09:55:56.771Z,98544.97
2022-12-24T09:58:49.200Z,98542.50
2022-12-24T10:01:20.094Z,98526.63
2022-12-24T10:03:48.829Z,98561.09
2022-12-24T10:06:30.225Z,98558.59
2022-12-24T10:09:04.044Z,98505.25
2022-12-24T10:12:05.957Z,98554.84
2022-12-24T10:15:02.045Z,98559.13
2022-12-24T10:17:52.757Z,98560.25
2022-12-24T10:20:41.476Z,98504.16
2022-12-24T10:24:00.854Z,98560.13
2022-12-24T10:26:46.973Z,98551.31
2022-12-24T10:29:23.806Z,98556.59
2022-12-24T10:32:06.089Z,98560.75
2022-12-24T10:34:50.051Z,98547.97
2022-12-24T10:37:25.289Z,98485.84
2022-12-24T10:39:54.515Z,98510.84
2022-12-24T10:42:34.341Z,98511.69
2022-12-24T10:45:09.447Z,98542.69
2022-12-24T10:47:41.025Z,98565.34
2022-12-24T10:51:00.179Z,98556.47
2022-12-24T10:53:54.678Z,98520.22
2022-12-24T10:56:23.344Z,98568.56
2022-12-24T10:58:55.796Z,98565.63
2022-12-24T11:01:50.195Z,98578.00
2022-12-24T11:04:22.981Z,98536.75
2022-12-24T11:07:03.437Z,98531.59
2022-12-24T11:09:36.423Z,98594.00
2022-12-24T11:12:22.239Z,98584.38
2022-12-24T11:15:19.050Z,98528.13
2022-12-24T11:18:06.622Z,98553.56
2022-12-24T11:20:35.777Z,98571.06
2022-12-24T11:23:03.927Z,98579.25
2022-12-24T11:25:37.781Z,98531.22
2022-12-24T11:28:30.501Z,98570.66
2022-12-24T11:31:04.255Z,98530.50
2022-12-24T11:33:46.051Z,98580.63
2022-12-24T11:36:15.209Z,98577.44
2022-12-24T11:38:52.191Z,98585.63
2022-12-24T11:41:20.436Z,98581.34
2022-12-24T11:43:52.464Z,98578.97
2022-12-24T11:46:52.631Z,98584.00
2022-12-24T11:49:31.297Z,98572.03
2022-12-24T11:52:13.283Z,98592.47
2022-12-24T11:55:13.771Z,98584.97
2022-12-24T11:58:24.032Z,98574.69
2022-12-24T12:01:01.018Z,98529.97
2022-12-24T12:04:14.511Z,98595.69
2022-12-24T12:06:50.793Z,98534.97
2022-12-24T12:09:26.138Z,98555.13
2022-12-24T12:12:27.681Z,98561.94
2022-12-24T12:15:14.412Z,98602.78
2022-12-24T12:17:59.896Z,98609.44
2022-12-24T12:20:43.244Z,98573.75
2022-12-24T12:23:25.141Z,98613.31
2022-12-24T12:26:26.287Z,98613.19
2022-12-24T12:29:06.336Z,98612.34
2022-12-24T12:31:48.762Z,98572.44
2022-12-24T12:34:29.906Z,98619.00
2022-12-24T12:37:12.641Z,98584.81
2022-12-24T12:39:44.204Z,98635.56
2022-12-24T12:42:37.138Z,98641.38
2022-12-24T12:45:39.988Z,98624.00
2022-12-24T12:48:45.636Z,98640.56
2022-12-24T12:51:40.551Z,98654.00
2022-12-24T12:54:51.947Z,98661.50
2022-12-24T12:57:26.789Z,98666.38
2022-12-24T13:00:02.544Z,98673.59
2022-12-24T13:02:46.744Z,98670.94
2022-12-24T13:05:55.668Z,98683.03
2022-12-24T13:09:10.183Z,98688.63
2022-12-24T13:12:23.612Z,98691.94
2022-12-24T13:15:03.232Z,98695.84
2022-12-24T13:17:55.440Z,98671.59
2022-12-24T13:20:37.119Z,98639.31
2022-12-24T13:23:17.647Z,98655.81
2022-12-24T13:25:53.572Z,98659.41
2022-12-24T13:28:25.653Z,98712.69
2022-12-24T13:31:20.277Z,98712.69
2022-12-24T13:33:55.260Z,98709.47
2022-12-24T13:36:24.494Z,98722.22
2022-12-24T13:39:00.406Z,98670.31
2022-12-24T13:41:42.029Z,98723.63
2022-12-24T13:44:13.850Z,98727.63
2022-12-24T13:47:05.015Z,98668.91
2022-12-24T13:49:53.178Z,98680.59
2022-12-24T13:52:40.669Z,98733.63
2022-12-24T13:55:17.923Z,98731.91
2022-12-24T13:58:05.840Z,98743.53
2022-12-24T14:01:01.601Z,98709.16
2022-12-24T14:03:46.234Z,98743.63
2022-12-24T14:06:29.911Z,98763.78
2022-12-24T14:09:19.874Z,98728.59
2022-12-24T14:11:56.319Z,98778.38
2022-12-24T14:14:39.800Z,98737.44
2022-12-24T14:17:23.952Z,98787.16
2022-12-24T14:20:01.547Z,98789.34
2022-12-24T14:22:38.138Z,98734.81
2022-12-24T14:25:23.005Z,98799.44
2022-12-24T14:28:24.414Z,98795.78
2022-12-24T14:31:06.707Z,98776.47
2022-12-24T14:33:36.683Z,98804.25
2022-12-24T14:36:05.483Z,98758.66
2022-12-24T14:38:34.723Z,98787.41
2022-12-24T14:41:34.227Z,98816.78
2022-12-24T14:44:11.274Z,98836.22
2022-12-24T14:46:59.139Z,98821.41
2022-12-24T14:50:11.925Z,98846.50
2022-12-24T14:53:06.263Z,98798.47
2022-12-24T14:55:41.947Z,98865.34
2022-12-24T14:58:46.835Z,98818.75
2022-12-24T15:01:24.440Z,98877.22
2022-12-24T15:04:06.300Z,98858.66
2022-12-24T15:06:58.511Z,98873.03
2022-12-24T15:09:31.213Z,98836.88
2022-12-24T15:12:03.598Z,98885.44
2022-12-24T15:14:43.199Z,98839.91
2022-12-24T15:17:13.575Z,98899.25
2022-12-24T15:19:46.015Z,98913.25
2022-12-24T15:22:30.437Z,98905.56
2022-12-24T15:24:58.650Z,98909.88
2022-12-24T15:27:33.381Z,98849.16
2022-12-24T15:30:14.614Z,98911.81
2022-12-24T15:32:43.136Z,98925.00
2022-12-24T15:35:55.647Z,98931.56
2022-12-24T15:38:36.770Z,98941.00
2022-12-24T15:41:17.466Z,98922.34
2022-12-24T15:43:47.596Z,98943.53
2022-12-24T15:46:28.362Z,98936.50
2022-12-24T15:49:00.607Z,98956.84
2022-12-24T15:51:36.963Z,98911.59
2022-12-24T15:54:16.348Z,98967.94
2022-12-24T15:56:46.699Z,98903.84
2022-12-24T15:59:38.261Z,98966.75
2022-12-24T16:02:36.750Z,98969.41
2022-12-24T16:05:31.871Z,98947.84
2022-12-24T16:08:17.472Z,98972.88
2022-12-24T16:10:52.150Z,98972.88
2022-12-24T16:13:34.929Z,98975.63
2022-12-24T16:16:22.840Z,98958.28
2022-12-24T16:19:00.785Z,98984.97
2022-12-24T16:21:35.480Z,98958.75
2022-12-24T16:24:24.783Z,98999.47
2022-12-24T16:26:54.922Z,98997.19
2022-12-24T16:29:24.252Z,98996.13
2022-12-24T16:31:57.964Z,98954.47
2022-12-24T16:34:30.993Z,99010.13
2022-12-24T16:37:02.034Z,98948.38
2022-12-24T16:39:35.110Z,98998.53
2022-12-24T16:42:23.717Z,98954.22
2022-12-24T16:44:54.385Z,98955.63
2022-12-24T16:47:33.626Z,99020.78
2022-12-24T16:50:07.907Z,98961.63
2022-12-24T16:52:37.515Z,98971.69
2022-12-24T16:55:06.169Z,98900.34
2022-12-24T16:57:34.964Z,99001.63
2022-12-24T17:00:07.862Z,98970.94
2022-12-24T17:02:36.810Z,99001.97
2022-12-24T17:05:06.169Z,98974.06
2022-12-24T17:07:38.321Z,99017.56
2022-12-24T17:10:14.264Z,99037.16
2022-12-24T17:12:44.574Z,99039.19
2022-12-24T17:15:12.912Z,98989.16
2022-12-24T17:17:41.472Z,99000.03
2022-12-24T17:20:16.684Z,99044.84
2022-12-24T17:22:47.523Z,99068.19
2022-12-24T17:25:16.995Z,99023.53
2022-12-24T17:27:45.591Z,99022.94
2022-12-24T17:30:14.218Z,99076.81
2022-12-24T17:32:43.225Z,99079.44
2022-12-24T17:35:11.587Z,99014.75
2022-12-24T17:37:39.496Z,99080.84
2022-12-24T17:40:09.374Z,99089.22
2022-12-24T17:42:37.750Z,99088.03
2022-12-24T17:45:07.119Z,99042.25
2022-12-24T17:47:35.859Z,99097.63
2022-12-24T17:50:04.691Z,99109.81
2022-12-24T17:52:34.848Z,99094.94
2022-12-24T17:55:03.695Z,99124.50
2022-12-24T17:57:32.151Z,99116.97
2022-12-24T18:00:00.420Z,99069.72
2022-12-24T18:02:30.789Z,99113.66
2022-12-24T18:04:59.329Z,99126.81
2022-12-24T18:07:27.669Z,99128.25
2022-12-24T18:09:55.983Z,98989.94
2022-12-24T18:12:24.156Z,99133.63
2022-12-24T18:14:52.115Z,99094.00
2022-12-24T18:17:20.525Z,99144.22
2022-12-24T18:19:49.011Z,99105.16
2022-12-24T18:22:17.042Z,99088.38
2022-12-24T18:24:45.612Z,99126.81
2022-12-24T18:27:13.926Z,99178.88
2022-12-24T18:29:42.748Z,99171.91
2022-12-24T18:32:13.178Z,99184.50
2022-12-24T18:34:41.428Z,99140.53
2022-12-24T18:37:09.808Z,99175.44
2022-12-24T18:39:38.595Z,99188.56
2022-12-24T18:42:06.988Z,99169.63
2022-12-24T18:44:35.411Z,99190.72
2022-12-24T18:47:03.793Z,99198.53
2022-12-24T18:49:32.687Z,99192.66
2022-12-24T18:52:05.714Z,99211.28
2022-12-24T18:54:34.514Z,99208.94
2022-12-24T18:57:04.000Z,99167.31
2022-12-24T18:59:32.774Z,99211.75
2022-12-24T19:02:01.563Z,99177.22
2022-12-24T19:04:30.131Z,99218.53
2022-12-24T19:07:00.619Z,99181.22
2022-12-24T19:09:28.877Z,99189.28
2022-12-24T19:11:57.693Z,99240.13
2022-12-24T19:14:26.163Z,99245.41
2022-12-24T19:16:54.619Z,99253.03
2022-12-24T19:19:24.771Z,99245.03
2022-12-24T19:21:53.546Z,99200.91
2022-12-24T19:24:22.396Z,99256.38
2022-12-24T19:26:50.718Z,99211.72
2022-12-24T19:29:19.686Z,99262.16
2022-12-24T19:31:48.365Z,99262.78
2022-12-24T19:34:16.847Z,99272.47
2022-12-24T19:36:45.093Z,99155.16
2022-12-24T19:39:13.267Z,99272.97
2022-12-24T19:41:41.617Z,99281.59
2022-12-24T19:44:13.709Z,99276.66
2022-12-24T19:46:41.953Z,99280.84
2022-12-24T19:49:12.724Z,99285.28
2022-12-24T19:51:41.710Z,99233.78
2022-12-24T19:54:18.754Z,99286.25
2022-12-24T19:56:47.967Z,99276.13
2022-12-24T19:59:16.467Z,99288.03
2022-12-24T20:01:45.131Z,99275.63
2022-12-24T20:04:15.184Z,99287.00
2022-12-24T20:06:43.677Z,99267.56
2022-12-24T20:09:12.938Z,99298.44
2022-12-24T20:11:41.278Z,99307.91
2022-12-24T20:14:11.435Z,99302.88
2022-12-24T20:16:40.130Z,99280.50
2022-12-24T20:19:10.624Z,99313.41
2022-12-24T20:21:38.767Z,99326.34
2022-12-24T20:24:07.672Z,99316.25
2022-12-24T20:26:36.505Z,99323.72
2022-12-24T20:29:10.188Z,99286.38
2022-12-24T20:31:39.267Z,99323.72
2022-12-24T20:34:08.939Z,99321.31
2022-12-24T20:36:37.744Z,99321.09
2022-12-24T20:39:07.288Z,99314.56
2022-12-24T20:41:36.904Z,99328.97
2022-12-24T20:44:05.503Z,99329.72
2022-12-24T20:46:34.231Z,99208.25
2022-12-24T20:49:02.503Z,99333.72
2022-12-24T20:51:30.992Z,99341.06
2022-12-24T20:54:02.231Z,99295.34
2022-12-24T20:56:31.839Z,99337.91
2022-12-24T20:59:01.451Z,99326.88
2022-12-24T21:01:30.506Z,99331.84
2022-12-24T21:04:04.968Z,99330.38
2022-12-24T21:06:35.396Z,99337.41
2022-12-24T21:09:06.281Z,99291.25
2022-12-24T21:11:50.353Z,99296.53
2022-12-24T21:14:28.478Z,99352.56
2022-12-24T21:16:56.989Z,99293.72
2022-12-24T21:19:25.928Z,99304.53
2022-12-24T21:21:55.602Z,99356.06
2022-12-24T21:24:25.406Z,99363.44
2022-12-24T21:26:53.927Z,99355.66
2022-12-24T21:29:22.642Z,99358.59
2022-12-24T21:31:51.882Z,99356.69
2022-12-24T21:34:20.329Z,99353.94
2022-12-24T21:36:48.706Z,99356.47
2022-12-24T21:39:18.207Z,99308.31
2022-12-24T21:41:46.915Z,99363.03
2022-12-24T21:44:15.135Z,99369.56
2022-12-24T21:46:44.036Z,99386.59
2022-12-24T21:49:31.243Z,99396.06
2022-12-24T21:52:00.013Z,99397.75
2022-12-24T21:54:30.858Z,99356.00
2022-12-24T21:57:21.513Z,99408.69
2022-12-24T21:59:55.110Z,99367.91
2022-12-24T22:02:29.200Z,99387.13
2022-12-24T22:04:57.529Z,99344.00
2022-12-24T22:07:47.320Z,99396.41
2022-12-24T22:10:34.359Z,99345.16
2022-12-24T22:13:07.726Z,99339.47
2022-12-24T22:15:50.386Z,99393.53
2022-12-24T22:18:22.327Z,99385.34
2022-12-24T22:20:52.085Z,99342.00
2022-12-24T22:23:20.477Z,99345.59
2022-12-24T22:25:49.193Z,99347.25
2022-12-24T22:28:17.604Z,99369.38
2022-12-24T22:30:46.989Z,99410.81
2022-12-24T22:33:15.765Z,99404.50
2022-12-24T22:35:44.469Z,99407.84
2022-12-24T22:38:13.460Z,99412.41
2022-12-24T22:40:43.175Z,99409.97
2022-12-24T22:43:12.260Z,99413.13
2022-12-24T22:45:41.248Z,99359.47
2022-12-24T22:48:11.735Z,99409.56
2022-12-24T22:50:41.207Z,99420.53
2022-12-24T22:53:10.015Z,99356.63
2022-12-24T22:55:38.412Z,99403.03
2022-12-24T22:58:07.190Z,99403.25
2022-12-24T23:00:45.081Z,99349.16
2022-12-24T23:03:14.251Z,99374.31
2022-12-24T23:05:43.150Z,99412.69
2022-12-24T23:08:13.100Z,99419.16
2022-12-24T23:10:42.193Z,99426.06
2022-12-24T23:13:31.969Z,99424.19
2022-12-24T23:16:07.755Z,99423.88
2022-12-24T23:18:39.223Z,99421.78
2022-12-24T23:21:08.782Z,99367.81
2022-12-24T23:23:37.637Z,99430.41
2022-12-24T23:26:10.233Z,99427.66
2022-12-24T23:28:39.300Z,99423.56
2022-12-24T23:31:09.027Z,99424.94
2022-12-24T23:33:37.872Z,99423.22
2022-12-24T23:36:07.609Z,99425.25
2022-12-24T23:38:36.391Z,99404.50
2022-12-24T23:41:08.808Z,99402.41
2022-12-24T23:43:38.533Z,99381.34
2022-12-24T23:46:07.475Z,99417.56
2022-12-24T23:48:36.381Z,99437.97
2022-12-24T23:51:27.297Z,99431.34
2022-12-24T23:53:57.567Z,99382.50
2022-12-24T23:56:26.886Z,99390.19
2022-12-24T23:58:56.213Z,99433.88
